Time;durP1;ratioP1;P1;durP2;ratioP2;P2;SDS_P1;SDS_P2;PMS_P1;PMS_P2;Temp;Humidity;BMP_temperature;BMP_pressure;BME280_temperature;BME280_humidity;BME280_pressure;Samples;Min_cycle;Max_cycle;Signal;HPM_P1;HPM_P2
2021/08/02 00:01:05;;;;;;;5.60;1.80;;;;;;;14.21;76.59;101366.91;5053651;28;19996;-70
2021/08/02 00:03:46;;;;;;;6.22;1.70;;;;;;;14.33;75.98;101362.81;5048400;28;20241;-70
2021/08/02 00:06:12;;;;;;;10.32;1.88;;;;;;;14.31;76.61;101364.66;5047625;28;20045;-70
2021/08/02 00:08:38;;;;;;;7.35;1.40;;;;;;;14.15;77.37;101355.78;5037501;28;20017;-70
2021/08/02 00:11:03;;;;;;;4.30;1.65;;;;;;;14.07;77.58;101360.59;5051027;28;20082;-70
2021/08/02 00:13:30;;;;;;;6.68;1.70;;;;;;;14.25;77.52;101367.59;5038546;28;20048;-69
2021/08/02 00:15:59;;;;;;;7.57;1.73;;;;;;;14.13;77.43;101358.50;5047510;28;20025;-69
2021/08/02 00:18:25;;;;;;;5.63;1.75;;;;;;;14.18;77.25;101355.66;5046197;28;20112;-69
2021/08/02 00:20:51;;;;;;;3.05;1.73;;;;;;;14.19;77.37;101360.84;5042609;28;20029;-69
2021/08/02 00:23:19;;;;;;;8.25;1.60;;;;;;;14.21;77.77;101366.06;5034713;28;20212;-70
2021/08/02 00:25:45;;;;;;;5.93;1.70;;;;;;;14.23;77.82;101368.63;5036300;28;20060;-70
2021/08/02 00:28:10;;;;;;;6.65;1.63;;;;;;;14.20;78.22;101364.34;5056106;28;20088;-70
2021/08/02 00:30:36;;;;;;;5.10;1.30;;;;;;;14.12;79.19;101362.06;5043091;28;20430;-70
2021/08/02 00:33:01;;;;;;;4.13;1.38;;;;;;;14.10;78.89;101363.03;5017135;28;20326;-70
2021/08/02 00:35:32;;;;;;;8.07;1.98;;;;;;;14.13;78.92;101362.91;5046431;28;20044;-70
2021/08/02 00:38:04;;;;;;;7.65;1.48;;;;;;;14.12;79.26;101362.06;5047889;28;20033;-70
2021/08/02 00:40:47;;;;;;;5.00;1.42;;;;;;;14.12;79.51;101350.69;5049501;28;20060;-70
2021/08/02 00:43:44;;;;;;;4.45;1.67;;;;;;;14.05;80.52;101357.16;5046498;28;20072;-70
2021/08/02 00:46:10;;;;;;;3.67;1.63;;;;;;;14.01;80.43;101352.03;5048245;28;20148;-70
2021/08/02 00:48:40;;;;;;;8.45;1.90;;;;;;;13.99;79.89;101361.78;5029199;28;20025;-70
2021/08/02 00:51:05;;;;;;;3.55;1.40;;;;;;;14.13;78.66;101353.22;5042857;28;20033;-70
2021/08/02 00:53:31;;;;;;;4.13;1.55;;;;;;;14.01;79.56;101356.47;5036574;28;20059;-70
2021/08/02 00:56:01;;;;;;;5.82;1.48;;;;;;;14.02;79.95;101355.50;5058364;28;20029;-70
2021/08/02 00:58:28;;;;;;;5.47;1.50;;;;;;;14.29;77.53;101360.41;5058344;28;20075;-70
2021/08/02 01:00:53;;;;;;;5.13;1.40;;;;;;;14.11;78.73;101359.50;5055768;28;20899;-70
2021/08/02 01:03:19;;;;;;;3.85;1.50;;;;;;;14.09;79.70;101356.09;5038511;28;20300;-70
2021/08/02 01:05:47;;;;;;;4.45;1.60;;;;;;;14.01;79.82;101359.09;5039131;28;20040;-70
2021/08/02 01:08:13;;;;;;;10.00;1.57;;;;;;;14.00;80.45;101358.22;5042143;28;20247;-70
2021/08/02 01:10:44;;;;;;;2.97;1.25;;;;;;;13.97;79.57;101363.66;5022419;28;20098;-70
2021/08/02 01:13:12;;;;;;;5.05;1.52;;;;;;;14.05;79.22;101362.44;5044363;28;20083;-70
2021/08/02 01:15:38;;;;;;;4.78;1.63;;;;;;;13.95;79.68;101354.97;5039904;28;20042;-70
2021/08/02 01:18:03;;;;;;;5.10;1.90;;;;;;;14.05;79.70;101359.81;5058313;28;20024;-70
2021/08/02 01:20:31;;;;;;;7.60;1.50;;;;;;;14.02;80.36;101350.25;5055375;28;20033;-70
2021/08/02 01:22:57;;;;;;;6.35;1.30;;;;;;;14.12;79.24;101364.69;5039011;28;20056;-70
2021/08/02 01:25:38;;;;;;;4.75;1.20;;;;;;;14.20;78.63;101359.06;5022103;28;20321;-70
2021/08/02 01:28:15;;;;;;;2.83;1.33;;;;;;;14.06;78.87;101367.63;5056681;28;20036;-70
2021/08/02 01:30:54;;;;;;;6.20;1.73;;;;;;;13.95;79.88;101367.25;5059529;28;20044;-70
2021/08/02 01:33:20;;;;;;;;;;;;;;;14.11;78.99;101359.50;5056442;28;20335;-70
2021/08/02 01:35:46;;;;;;;5.45;1.27;;;;;;;14.03;79.92;101362.50;5058731;28;19940;-70
2021/08/02 01:38:12;;;;;;;5.80;1.63;;;;;;;13.91;81.93;101369.19;5042125;28;20029;-70
2021/08/02 01:40:38;;;;;;;6.88;1.77;;;;;;;14.01;79.83;101370.47;5038594;28;20041;-70
2021/08/02 01:43:04;;;;;;;4.30;1.40;;;;;;;13.81;82.02;101363.50;5051074;28;20036;-70
2021/08/02 01:45:30;;;;;;;2.95;1.17;;;;;;;13.86;79.17;101365.94;5022951;28;20067;-70
2021/08/02 01:48:01;;;;;;;7.40;1.55;;;;;;;13.88;80.12;101361.44;5039898;28;20045;-70
2021/08/02 01:50:47;;;;;;;3.85;1.83;;;;;;;13.87;80.71;101357.09;5033867;28;20029;-70
2021/08/02 01:53:35;;;;;;;2.38;1.48;;;;;;;13.95;80.97;101359.34;5047115;28;20041;-70
2021/08/02 01:56:17;;;;;;;6.10;1.45;;;;;;;13.86;81.05;101365.06;5026308;28;20236;-70
2021/08/02 01:58:46;;;;;;;5.85;1.23;;;;;;;13.86;81.14;101358.03;5042712;28;20104;-70
2021/08/02 02:01:12;;;;;;;3.80;1.55;;;;;;;13.68;82.09;101366.75;5030059;28;20056;-70
2021/08/02 02:03:37;;;;;;;8.18;1.70;;;;;;;13.62;81.60;101363.50;5042415;28;20025;-70
2021/08/02 02:06:04;;;;;;;6.10;1.55;;;;;;;13.80;80.24;101360.91;5028640;28;20096;-70
2021/08/02 02:08:35;;;;;;;2.60;1.30;;;;;;;13.59;80.19;101360.13;5041318;28;20206;-70
2021/08/02 02:11:01;;;;;;;5.47;1.17;;;;;;;13.65;79.34;101361.63;5042195;28;20045;-70
2021/08/02 02:13:46;;;;;;;8.57;1.52;;;;;;;13.68;79.38;101358.84;5060713;28;20041;-70
2021/08/02 02:16:11;;;;;;;2.60;1.17;;;;;;;13.76;78.85;101356.72;5044903;28;20044;-71
2021/08/02 02:18:39;;;;;;;4.05;1.50;;;;;;;13.57;79.98;101362.84;5044318;28;20075;-71
2021/08/02 02:21:04;;;;;;;3.05;1.58;;;;;;;13.66;79.77;101363.31;5025382;28;20040;-71
2021/08/02 02:23:29;;;;;;;2.53;1.30;;;;;;;13.42;80.65;101358.25;5056349;28;20040;-71
2021/08/02 02:25:55;;;;;;;3.10;1.17;;;;;;;13.38;80.55;101364.56;5061755;28;20039;-71
2021/08/02 02:28:21;;;;;;;2.95;1.38;;;;;;;13.46;80.49;101365.06;5028508;28;20021;-71
2021/08/02 02:30:46;;;;;;;4.90;1.30;;;;;;;13.28;81.50;101366.72;5041358;28;20096;-71
2021/08/02 02:33:13;;;;;;;3.22;1.33;;;;;;;13.34;81.50;101368.25;5031057;28;20248;-71
2021/08/02 02:35:40;;;;;;;7.55;1.33;;;;;;;13.29;81.39;101372.84;5041349;28;20096;-71
2021/08/02 02:38:09;;;;;;;5.97;2.33;;;;;;;13.27;81.40;101364.16;5049351;28;20194;-71
2021/08/02 02:40:36;;;;;;;7.88;1.70;;;;;;;13.33;81.09;101372.66;5060937;28;20032;-71
2021/08/02 02:43:01;;;;;;;5.28;2.00;;;;;;;13.33;80.49;101367.38;5053827;28;20127;-71
2021/08/02 02:45:26;;;;;;;3.13;1.60;;;;;;;13.23;79.79;101371.31;5042250;28;20059;-71
2021/08/02 02:47:52;;;;;;;4.45;1.70;;;;;;;13.31;79.50;101369.22;5040991;28;20271;-71
2021/08/02 02:50:17;;;;;;;2.92;2.08;;;;;;;13.12;81.35;101374.41;5043345;28;20060;-71
2021/08/02 02:52:43;;;;;;;7.45;2.20;;;;;;;13.00;81.74;101373.16;5052357;28;20095;-71
2021/08/02 02:55:09;;;;;;;5.03;2.45;;;;;;;13.00;81.86;101374.94;5041180;28;20064;-71
2021/08/02 02:57:37;;;;;;;2.85;1.80;;;;;;;13.05;81.29;101379.06;5047376;28;20028;-71
2021/08/02 03:00:07;;;;;;;6.43;2.00;;;;;;;12.61;82.88;101378.31;5025948;28;20229;-71
2021/08/02 03:02:33;;;;;;;3.92;1.48;;;;;;;12.57;83.24;101372.31;5024357;28;20268;-71
2021/08/02 03:04:58;;;;;;;2.25;1.48;;;;;;;12.59;82.77;101372.25;5041386;28;20033;-71
2021/08/02 03:07:24;;;;;;;4.50;1.95;;;;;;;12.57;82.95;101376.69;5008131;28;20029;-71
2021/08/02 03:09:49;;;;;;;6.35;2.00;;;;;;;12.51;83.48;101375.16;5059328;28;20056;-71
2021/08/02 03:12:15;;;;;;;4.13;2.30;;;;;;;12.62;82.90;101374.75;5041189;28;20021;-71
2021/08/02 03:14:40;;;;;;;4.60;2.08;;;;;;;12.54;83.98;101379.47;5053605;28;20059;-71
2021/08/02 03:17:07;;;;;;;4.63;1.75;;;;;;;12.28;84.09;101381.34;5058795;28;20336;-71
2021/08/02 03:19:32;;;;;;;4.07;1.63;;;;;;;12.29;84.00;101383.06;5053464;28;20060;-71
2021/08/02 03:21:59;;;;;;;6.28;2.03;;;;;;;12.32;84.18;101374.22;5050028;28;20404;-71
2021/08/02 03:24:28;;;;;;;6.30;1.95;;;;;;;12.24;84.86;101382.38;5043470;28;20024;-71
2021/08/02 03:27:28;;;;;;;5.68;1.90;;;;;;;12.42;83.71;101386.03;5024553;28;20017;-71
2021/08/02 03:29:56;;;;;;;5.40;1.60;;;;;;;12.18;84.63;101390.50;5051632;28;20363;-71
2021/08/02 03:32:21;;;;;;;9.27;1.80;;;;;;;12.20;84.57;101391.28;5026895;28;20021;-71
2021/08/02 03:34:51;;;;;;;5.03;2.08;;;;;;;12.01;85.37;101389.38;5058226;28;20036;-71
2021/08/02 03:37:16;;;;;;;5.05;1.92;;;;;;;11.86;85.69;101396.03;5041003;28;20051;-71
2021/08/02 03:39:42;;;;;;;6.38;2.35;;;;;;;11.93;84.81;101396.66;5052006;28;20029;-71
2021/08/02 03:42:08;;;;;;;4.28;2.00;;;;;;;11.79;85.36;101388.41;5060303;28;20021;-71
2021/08/02 03:44:33;;;;;;;7.25;2.10;;;;;;;11.95;84.67;101392.25;5039065;28;20033;-71
2021/08/02 03:46:59;;;;;;;8.55;2.28;;;;;;;11.85;85.16;101393.44;5056968;28;20084;-71
2021/08/02 03:49:24;;;;;;;4.38;1.90;;;;;;;11.75;85.61;101389.44;5042573;28;20215;-71
2021/08/02 03:51:53;;;;;;;7.25;2.10;;;;;;;12.02;84.18;101393.69;5050396;28;20338;-71
2021/08/02 03:54:19;;;;;;;3.05;1.80;;;;;;;11.97;84.74;101397.41;5039831;28;20083;-71
2021/08/02 03:56:44;;;;;;;7.45;1.95;;;;;;;12.06;83.83;101397.06;5039678;28;20038;-71
2021/08/02 03:59:10;;;;;;;10.73;2.47;;;;;;;11.96;84.00;101401.81;5025237;28;20013;-71
2021/08/02 04:01:39;;;;;;;8.48;3.22;;;;;;;12.06;83.44;101403.19;5042773;28;20046;-71
2021/08/02 04:04:05;;;;;;;4.97;2.10;;;;;;;11.86;84.25;101408.28;5023817;28;20100;-71
2021/08/02 04:06:31;;;;;;;4.90;2.13;;;;;;;11.78;84.68;101412.97;5039362;28;20120;-71
2021/08/02 04:08:56;;;;;;;10.65;2.17;;;;;;;11.70;85.50;101419.34;5042073;28;20045;-71
2021/08/02 04:11:22;;;;;;;8.75;1.70;;;;;;;11.72;84.86;101414.03;5059220;28;20344;-71
2021/08/02 04:13:47;;;;;;;2.20;1.75;;;;;;;11.67;85.20;101422.06;5050803;28;20063;-71
2021/08/02 04:16:12;;;;;;;2.00;1.90;;;;;;;11.63;85.98;101414.38;5059388;28;20047;-71
2021/08/02 04:18:38;;;;;;;7.72;2.00;;;;;;;11.83;84.26;101419.75;5060229;28;20060;-71
2021/08/02 04:21:03;;;;;;;4.05;1.73;;;;;;;11.68;84.65;101422.94;5039410;28;20025;-71
2021/08/02 04:23:28;;;;;;;7.35;2.20;;;;;;;11.86;84.51;101418.78;5051435;28;20037;-71
2021/08/02 04:25:54;;;;;;;7.82;1.90;;;;;;;12.02;83.90;101425.19;5040708;28;20101;-71
2021/08/02 04:28:19;;;;;;;5.60;2.00;;;;;;;12.43;82.29;101421.94;5039484;28;20041;-71
2021/08/02 04:30:45;;;;;;;10.02;2.28;;;;;;;12.33;82.85;101418.78;5040925;28;20099;-71
2021/08/02 04:33:10;;;;;;;2.95;1.90;;;;;;;12.77;81.24;101429.31;5039148;28;20119;-71
2021/08/02 04:35:36;;;;;;;4.82;2.00;;;;;;;13.05;79.72;101417.66;5052409;28;20039;-71
2021/08/02 04:38:01;;;;;;;4.85;1.92;;;;;;;13.49;78.37;101420.19;5060396;28;20032;-71
2021/08/02 04:40:26;;;;;;;4.35;1.92;;;;;;;13.85;76.71;101423.91;5050441;28;20044;-71
2021/08/02 04:42:52;;;;;;;4.45;1.98;;;;;;;14.18;75.46;101418.88;5057529;28;20468;-71
2021/08/02 04:45:17;;;;;;;8.23;2.20;;;;;;;14.56;74.92;101426.75;5048064;28;20044;-71
2021/08/02 04:47:43;;;;;;;3.53;2.20;;;;;;;14.59;73.91;101421.38;5055447;28;20039;-71
2021/08/02 04:50:08;;;;;;;5.80;2.35;;;;;;;15.23;71.51;101421.75;5052284;28;20037;-71
2021/08/02 04:52:34;;;;;;;3.88;1.75;;;;;;;16.69;67.37;101421.81;5023922;28;20101;-71
2021/08/02 04:54:59;;;;;;;3.85;2.33;;;;;;;16.62;67.20;101426.59;5057503;28;20223;-71
2021/08/02 04:57:25;;;;;;;4.47;2.20;;;;;;;17.53;63.70;101423.97;5057296;28;20041;-71
2021/08/02 04:59:50;;;;;;;5.35;2.35;;;;;;;18.10;62.38;101432.88;5051586;28;20313;-71
2021/08/02 05:02:15;;;;;;;3.70;2.17;;;;;;;18.56;60.61;101427.31;5039467;28;20041;-71
2021/08/02 05:04:41;;;;;;;4.90;2.88;;;;;;;18.64;60.39;101422.34;5056089;28;20043;-71
2021/08/02 05:07:06;;;;;;;6.07;2.88;;;;;;;18.60;59.80;101421.69;5050695;28;20029;-71
2021/08/02 05:09:32;;;;;;;9.60;2.85;;;;;;;19.06;58.10;101433.72;5055046;28;20033;-71
2021/08/02 05:11:57;;;;;;;4.68;2.58;;;;;;;20.36;55.91;101432.75;5056178;28;20045;-71
2021/08/02 05:14:23;;;;;;;5.55;2.90;;;;;;;21.08;53.83;101430.09;5050668;28;20052;-71
2021/08/02 05:16:48;;;;;;;8.30;2.75;;;;;;;21.48;52.37;101437.72;5055410;28;20095;-71
2021/08/02 05:19:13;;;;;;;4.10;2.60;;;;;;;21.82;51.21;101437.75;5041198;28;20025;-71
2021/08/02 05:21:39;;;;;;;3.42;2.30;;;;;;;22.17;51.25;101442.09;5040794;28;20321;-71
2021/08/02 05:24:04;;;;;;;5.68;2.30;;;;;;;22.47;49.60;101436.13;5037061;28;20037;-71
2021/08/02 05:26:30;;;;;;;5.38;2.20;;;;;;;22.98;49.15;101439.94;5041808;28;20029;-72
2021/08/02 05:28:55;;;;;;;9.05;2.63;;;;;;;23.18;47.70;101435.63;5050749;28;20128;-72
2021/08/02 05:31:21;;;;;;;5.32;2.00;;;;;;;23.82;46.86;101439.94;5042724;28;20053;-72
2021/08/02 05:33:46;;;;;;;9.70;2.22;;;;;;;23.19;48.57;101443.53;5041940;28;20126;-70
2021/08/02 05:36:11;;;;;;;3.85;1.63;;;;;;;23.61;47.80;101447.97;5059527;28;20032;-70
2021/08/02 05:38:37;;;;;;;3.22;1.70;;;;;;;23.83;46.94;101452.34;5059852;28;20033;-71
2021/08/02 05:41:02;;;;;;;3.65;1.60;;;;;;;24.54;45.46;101451.47;5061565;28;20025;-71
2021/08/02 05:43:28;;;;;;;9.57;2.25;;;;;;;24.53;45.09;101452.44;5058638;28;20045;-71
2021/08/02 05:45:53;;;;;;;9.70;2.08;;;;;;;24.47;45.18;101452.97;5040390;28;20072;-71
2021/08/02 05:48:19;;;;;;;4.28;1.80;;;;;;;24.52;45.38;101456.94;5037255;28;20040;-71
2021/08/02 05:50:44;;;;;;;8.20;2.00;;;;;;;24.49;45.37;101457.19;5057527;28;20667;-70
2021/08/02 05:53:10;;;;;;;6.30;1.60;;;;;;;24.55;44.91;101447.78;5050080;28;20056;-70
2021/08/02 05:55:35;;;;;;;8.93;1.75;;;;;;;24.46;45.36;101453.94;5048202;28;20045;-72
2021/08/02 05:58:00;;;;;;;6.30;1.73;;;;;;;24.78;44.70;101458.25;5036455;28;20040;-72
2021/08/02 06:00:26;;;;;;;9.60;1.48;;;;;;;24.87;44.78;101455.56;5051555;28;20033;-72
2021/08/02 06:02:51;;;;;;;6.78;2.03;;;;;;;24.90;44.90;101454.44;5043116;28;20028;-72
2021/08/02 06:05:17;;;;;;;3.33;1.63;;;;;;;24.80;44.97;101453.59;5049435;28;20063;-70
2021/08/02 06:07:43;;;;;;;8.82;1.85;;;;;;;25.10;45.07;101452.56;5049589;28;20063;-70
2021/08/02 06:10:11;;;;;;;9.27;1.70;;;;;;;24.98;45.48;101449.22;5052613;28;20333;-70
2021/08/02 06:12:37;;;;;;;8.35;1.95;;;;;;;24.82;45.08;101454.31;5062745;28;20131;-70
2021/08/02 06:15:03;;;;;;;4.18;1.42;;;;;;;25.05;44.71;101449.47;5046150;28;20296;-70
2021/08/02 06:17:29;;;;;;;6.60;1.92;;;;;;;25.38;44.26;101453.56;5051310;28;20064;-70
2021/08/02 06:19:54;;;;;;;8.82;2.03;;;;;;;25.61;43.83;101453.22;5063292;28;20311;-70
2021/08/02 06:22:19;;;;;;;6.22;1.85;;;;;;;25.54;44.43;101452.09;5051127;28;20037;-70
2021/08/02 06:24:45;;;;;;;7.38;1.88;;;;;;;25.82;42.80;101456.53;5055762;28;20238;-70
2021/08/02 06:27:10;;;;;;;7.63;1.50;;;;;;;25.84;42.59;101459.91;5061402;28;20051;-71
2021/08/02 06:29:36;;;;;;;8.63;1.65;;;;;;;26.10;42.01;101453.06;5060521;28;20080;-71
2021/08/02 06:32:01;;;;;;;7.95;1.63;;;;;;;26.56;42.07;101454.75;5056879;28;20216;-71
2021/08/02 06:34:27;;;;;;;5.43;1.60;;;;;;;26.68;41.13;101450.03;5042593;28;20037;-71
2021/08/02 06:36:52;;;;;;;5.43;1.38;;;;;;;26.33;42.36;101464.25;5039759;28;20043;-71
2021/08/02 06:39:18;;;;;;;6.82;1.27;;;;;;;26.85;40.54;101448.34;5039381;28;20084;-71
2021/08/02 06:41:43;;;;;;;4.82;2.03;;;;;;;26.51;41.05;101459.72;5040467;28;20274;-71
2021/08/02 06:44:08;;;;;;;2.67;1.38;;;;;;;27.03;39.72;101458.22;5040393;28;20124;-71
2021/08/02 06:46:34;;;;;;;3.45;1.48;;;;;;;27.44;39.22;101466.63;5040669;28;20043;-71
2021/08/02 06:48:59;;;;;;;2.30;0.95;;;;;;;27.07;39.13;101463.16;5040486;28;20025;-71
2021/08/02 06:51:25;;;;;;;5.82;1.40;;;;;;;26.58;41.03;101459.97;5041815;28;20096;-71
2021/08/02 06:53:50;;;;;;;6.40;1.33;;;;;;;26.78;41.26;101456.16;5041647;28;20336;-71
2021/08/02 06:56:16;;;;;;;5.82;1.33;;;;;;;27.13;39.00;101464.38;5043155;28;20032;-71
2021/08/02 06:58:41;;;;;;;4.63;1.23;;;;;;;25.15;43.69;101457.53;5049686;28;20416;-71
2021/08/02 07:01:07;;;;;;;3.53;1.13;;;;;;;24.95;43.99;101462.88;5051529;28;20037;-71
2021/08/02 07:03:32;;;;;;;4.22;1.30;;;;;;;26.71;39.01;101456.94;5046667;28;20025;-71
2021/08/02 07:05:57;;;;;;;3.90;1.20;;;;;;;25.93;41.28;101460.91;5048606;28;20041;-71
2021/08/02 07:08:23;;;;;;;4.15;1.30;;;;;;;24.47;46.24;101471.72;5046455;28;20122;-71
2021/08/02 07:10:48;;;;;;;8.10;1.77;;;;;;;24.38;45.13;101475.22;5045665;28;20067;-71
2021/08/02 07:13:13;;;;;;;2.80;1.02;;;;;;;24.54;44.95;101467.53;5047128;28;20118;-71
2021/08/02 07:15:39;;;;;;;5.50;1.08;;;;;;;24.72;43.19;101470.34;5050986;28;20041;-70
2021/08/02 07:18:04;;;;;;;3.28;1.45;;;;;;;25.58;41.53;101473.13;5052721;28;20136;-70
2021/08/02 07:20:30;;;;;;;7.45;1.52;;;;;;;25.64;41.33;101477.06;5041417;28;20033;-70
2021/08/02 07:22:55;;;;;;;5.18;0.93;;;;;;;25.55;41.66;101470.75;5040444;28;20379;-70
2021/08/02 07:25:20;;;;;;;8.80;1.50;;;;;;;25.40;40.89;101465.00;5041316;28;20055;-70
2021/08/02 07:27:46;;;;;;;2.33;1.27;;;;;;;24.59;43.40;101478.66;5041287;28;20208;-70
2021/08/02 07:30:11;;;;;;;4.13;1.10;;;;;;;23.77;43.48;101471.56;5041266;28;20040;-70
2021/08/02 07:32:37;;;;;;;3.15;1.48;;;;;;;23.71;46.17;101475.63;5040844;28;20029;-70
2021/08/02 07:35:03;;;;;;;2.20;1.08;;;;;;;23.58;48.33;101483.00;5045040;28;20108;-70
2021/08/02 07:37:28;;;;;;;4.22;0.90;;;;;;;23.47;48.73;101481.25;5040892;28;20100;-70
2021/08/02 07:39:54;;;;;;;5.97;1.05;;;;;;;23.43;48.89;101482.50;5055780;28;20216;-70
2021/08/02 07:42:19;;;;;;;5.28;1.15;;;;;;;23.07;49.51;101487.28;5049234;28;20033;-70
2021/08/02 07:44:45;;;;;;;2.90;1.30;;;;;;;22.88;49.00;101479.91;5056114;28;20037;-70
2021/08/02 07:47:10;;;;;;;3.63;1.42;;;;;;;23.06;48.84;101485.59;5047061;28;20051;-69
2021/08/02 07:49:35;;;;;;;2.30;1.00;;;;;;;23.15;49.06;101492.81;5042224;28;20044;-69
2021/08/02 07:52:01;;;;;;;3.35;1.42;;;;;;;23.27;48.09;101488.28;5050052;28;20040;-69
2021/08/02 07:54:26;;;;;;;5.53;0.93;;;;;;;23.07;48.65;101489.13;5041945;28;20849;-69
2021/08/02 07:56:52;;;;;;;2.85;1.00;;;;;;;23.02;48.44;101484.13;5048070;28;20041;-69
2021/08/02 07:59:17;;;;;;;2.17;0.80;;;;;;;22.90;48.83;101491.34;5044869;28;20033;-69
2021/08/02 08:01:43;;;;;;;3.45;1.10;;;;;;;22.78;47.83;101487.84;5032568;28;20043;-69
2021/08/02 08:04:08;;;;;;;4.40;1.45;;;;;;;23.07;48.44;101500.66;5046221;28;20354;-69
2021/08/02 08:06:34;;;;;;;7.43;1.13;;;;;;;22.85;49.31;101498.00;5049729;28;20348;-69
2021/08/02 08:08:59;;;;;;;3.10;1.00;;;;;;;22.87;49.38;101502.28;5042350;28;20133;-69
2021/08/02 08:11:25;;;;;;;1.77;1.00;;;;;;;22.88;49.02;101498.59;5046571;28;20409;-69
2021/08/02 08:13:50;;;;;;;3.97;1.30;;;;;;;22.89;49.00;101497.66;5050234;28;20051;-69
2021/08/02 08:16:15;;;;;;;2.90;1.20;;;;;;;22.83;49.34;101494.63;5047738;28;20029;-69
2021/08/02 08:18:41;;;;;;;4.85;1.13;;;;;;;22.17;48.02;101504.28;5051383;28;20089;-69
2021/08/02 08:21:06;;;;;;;2.42;1.17;;;;;;;21.36;50.67;101497.25;5038176;28;20041;-69
2021/08/02 08:23:32;;;;;;;2.83;1.17;;;;;;;18.97;56.00;101506.88;5049621;28;20044;-69
2021/08/02 08:26:01;;;;;;;4.65;1.25;;;;;;;18.10;56.58;101515.91;5045819;28;20037;-70
2021/08/02 08:28:27;;;;;;;7.05;1.25;;;;;;;20.71;54.32;101502.88;5044329;28;20033;-69
2021/08/02 08:30:52;;;;;;;5.40;1.23;;;;;;;17.54;59.09;101510.41;5046386;28;20031;-69
2021/08/02 08:33:17;;;;;;;1.80;1.13;;;;;;;20.60;52.93;101510.78;5044706;28;20289;-69
2021/08/02 08:35:43;;;;;;;3.03;1.27;;;;;;;20.60;53.13;101504.63;5042167;28;20120;-69
2021/08/02 08:38:09;;;;;;;6.80;1.35;;;;;;;19.91;53.90;101507.72;5037171;28;20037;-69
2021/08/02 08:40:34;;;;;;;4.20;1.50;;;;;;;19.70;54.95;101510.88;5038653;28;20063;-69
2021/08/02 08:43:01;;;;;;;4.75;1.33;;;;;;;19.12;56.60;101505.03;5041479;28;20060;-69
2021/08/02 08:45:26;;;;;;;3.58;1.20;;;;;;;20.99;53.87;101502.66;5019233;28;20041;-69
2021/08/02 08:47:53;;;;;;;3.20;1.33;;;;;;;19.08;53.39;101505.31;5044475;28;20468;-69
2021/08/02 08:50:18;;;;;;;2.83;1.00;;;;;;;18.64;54.75;101509.03;5036414;28;20178;-69
2021/08/02 08:52:44;;;;;;;2.50;1.27;;;;;;;18.59;56.45;101501.34;5026759;28;20286;-69
2021/08/02 08:55:11;;;;;;;6.82;1.30;;;;;;;21.54;49.12;101500.34;5002919;28;20072;-69
2021/08/02 08:57:36;;;;;;;7.70;1.05;;;;;;;20.46;52.95;101513.59;5039942;28;20064;-69
2021/08/02 09:00:03;;;;;;;2.78;1.20;;;;;;;22.07;49.59;101516.66;5039198;28;20297;-69
2021/08/02 09:02:29;;;;;;;2.47;1.17;;;;;;;23.07;46.27;101515.84;5035897;28;20073;-69
2021/08/02 09:04:56;;;;;;;6.25;1.20;;;;;;;20.86;48.87;101516.88;5046813;28;20300;-69
2021/08/02 09:07:36;;;;;;;2.28;1.10;;;;;;;21.57;50.30;101510.78;5035393;28;20063;-69
2021/08/02 09:10:03;;;;;;;4.10;1.15;;;;;;;20.38;48.62;101519.47;5037091;28;20232;-69
2021/08/02 09:12:30;;;;;;;34.25;3.10;;;;;;;22.83;47.86;101507.97;5039257;28;20065;-69
2021/08/02 09:14:56;;;;;;;22.67;2.25;;;;;;;24.10;44.10;101521.31;5045957;28;20439;-69
2021/08/02 09:17:27;;;;;;;2.00;1.00;;;;;;;23.07;43.88;101521.19;5045791;28;20037;-70
2021/08/02 09:19:52;;;;;;;4.32;1.00;;;;;;;20.47;47.97;101523.28;5044376;28;20063;-71
2021/08/02 09:22:34;;;;;;;22.30;1.90;;;;;;;23.16;46.47;101513.25;5046914;28;20066;-71
2021/08/02 09:25:11;;;;;;;3.35;1.13;;;;;;;21.13;48.24;101510.47;5044842;28;20039;-71
2021/08/02 09:27:37;;;;;;;30.88;2.17;;;;;;;22.58;47.34;101507.31;5048690;28;20041;-71
2021/08/02 09:30:19;;;;;;;12.00;1.58;;;;;;;22.55;47.52;101507.56;5044133;28;20036;-71
2021/08/02 09:32:52;;;;;;;14.32;1.25;;;;;;;22.31;47.73;101513.91;5044621;28;20118;-71
2021/08/02 09:35:27;;;;;;;5.57;1.33;;;;;;;22.42;47.18;101515.72;5046618;28;20051;-71
2021/08/02 09:37:54;;;;;;;4.85;1.10;;;;;;;20.35;47.57;101518.81;5044470;28;20037;-71
2021/08/02 09:40:20;;;;;;;5.38;0.98;;;;;;;22.08;47.73;101520.19;5043979;28;20055;-71
2021/08/02 09:42:56;;;;;;;5.25;1.38;;;;;;;21.10;50.11;101521.34;5047011;28;20040;-71
2021/08/02 09:45:21;;;;;;;5.28;1.20;;;;;;;21.89;48.22;101523.44;5044390;28;20037;-71
2021/08/02 09:47:50;;;;;;;5.47;1.05;;;;;;;22.03;46.92;101523.22;5036015;28;20045;-71
2021/08/02 09:50:29;;;;;;;2.90;0.73;;;;;;;21.57;47.83;101522.28;5034959;28;20052;-71
2021/08/02 09:52:54;;;;;;;3.10;0.82;;;;;;;21.76;47.09;101519.06;5042825;28;20036;-71
2021/08/02 09:55:21;;;;;;;4.53;0.98;;;;;;;21.69;47.41;101530.31;5040719;28;20042;-71
2021/08/02 09:57:50;;;;;;;2.63;0.90;;;;;;;21.56;47.50;101525.94;5018964;28;20037;-71
2021/08/02 10:00:16;;;;;;;5.10;1.50;;;;;;;21.56;47.17;101525.09;5034894;28;20029;-71
2021/08/02 10:02:42;;;;;;;2.78;1.00;;;;;;;21.70;46.74;101529.34;5036373;28;20061;-71
2021/08/02 10:05:09;;;;;;;3.65;1.25;;;;;;;21.72;46.97;101525.59;5040782;28;20037;-71
2021/08/02 10:07:35;;;;;;;4.50;0.93;;;;;;;21.67;47.07;101533.09;5053999;28;20041;-71
2021/08/02 10:10:00;;;;;;;3.72;1.10;;;;;;;21.54;46.98;101535.00;5038676;28;20039;-71
2021/08/02 10:12:26;;;;;;;1.13;0.85;;;;;;;21.61;46.98;101530.88;5038874;28;20261;-71
2021/08/02 10:14:54;;;;;;;2.40;0.82;;;;;;;21.46;46.76;101528.44;5059860;28;20037;-71
2021/08/02 10:17:19;;;;;;;4.70;1.17;;;;;;;20.58;49.12;101531.34;5046854;28;20033;-72
2021/08/02 10:19:50;;;;;;;3.63;1.08;;;;;;;21.91;45.97;101529.50;5038694;28;20025;-72
2021/08/02 10:22:15;;;;;;;7.40;1.40;;;;;;;21.74;46.40;101525.47;5039675;28;20037;-72
2021/08/02 10:24:48;;;;;;;10.10;1.10;;;;;;;21.82;46.52;101525.72;5039455;28;20213;-72
2021/08/02 10:27:26;;;;;;;2.75;1.15;;;;;;;22.21;45.42;101520.91;5043763;28;20036;-72
2021/08/02 10:29:51;;;;;;;4.03;1.15;;;;;;;22.05;45.85;101521.28;5038658;28;20041;-72
2021/08/02 10:32:24;;;;;;;5.75;1.33;;;;;;;21.76;46.30;101520.88;5039815;28;20071;-72
2021/08/02 10:34:53;;;;;;;1.92;0.90;;;;;;;21.82;46.31;101517.75;5038319;28;20041;-72
2021/08/02 10:37:31;;;;;;;4.05;1.00;;;;;;;21.91;46.03;101519.69;5021825;28;20025;-72
2021/08/02 10:40:07;;;;;;;2.63;1.00;;;;;;;21.91;45.71;101519.69;5038565;28;20021;-72
2021/08/02 10:42:43;;;;;;;2.35;0.77;;;;;;;21.73;46.23;101523.78;5051396;28;20045;-72
2021/08/02 10:45:09;;;;;;;2.83;1.00;;;;;;;21.61;46.61;101514.91;5045138;28;20059;-72
2021/08/02 10:47:42;;;;;;;2.60;1.00;;;;;;;21.63;45.96;101519.16;5043746;28;20317;-72
2021/08/02 10:50:08;;;;;;;3.25;1.30;;;;;;;21.62;46.23;101512.13;5038002;28;20037;-72
2021/08/02 10:52:33;;;;;;;2.15;0.80;;;;;;;21.56;46.22;101514.44;5037499;28;20037;-72
2021/08/02 10:54:59;;;;;;;5.25;1.00;;;;;;;21.72;43.96;101519.41;5039622;28;20064;-72
2021/08/02 10:57:24;;;;;;;2.67;1.00;;;;;;;20.75;45.49;101524.81;5037701;28;20037;-72
2021/08/02 10:59:50;;;;;;;3.40;0.93;;;;;;;21.73;45.73;101529.94;5050470;28;20141;-72
2021/08/02 11:02:15;;;;;;;1.90;0.90;;;;;;;21.72;45.64;101530.06;5040196;28;20038;-72
2021/08/02 11:04:41;;;;;;;3.25;0.90;;;;;;;21.22;45.52;101520.44;5038342;28;20041;-72
2021/08/02 11:07:07;;;;;;;7.15;1.27;;;;;;;21.69;45.03;101525.00;5036852;28;20029;-72
2021/08/02 11:09:34;;;;;;;12.55;1.38;;;;;;;21.95;45.00;101521.13;5046390;28;20086;-72
2021/08/02 11:12:11;;;;;;;15.27;1.90;;;;;;;21.89;45.17;101526.13;5047055;28;20049;-72
2021/08/02 11:14:55;;;;;;;7.50;1.38;;;;;;;21.97;45.35;101524.53;5051195;28;20049;-72
2021/08/02 11:17:24;;;;;;;6.35;2.10;;;;;;;22.16;45.04;101529.28;5053466;28;20056;-72
2021/08/02 11:20:09;;;;;;;8.15;0.95;;;;;;;21.97;45.28;101521.84;5046148;28;20206;-72
2021/08/02 11:22:53;;;;;;;7.57;1.25;;;;;;;22.01;45.29;101528.69;5042829;28;20336;-72
2021/08/02 11:25:28;;;;;;;8.15;1.27;;;;;;;21.95;45.36;101531.81;5046557;28;20036;-72